AUA27 LOWW-LOWS
Flight info
| Callsign | AUA27 |
|---|---|
| Flight time | 0h 33m |
| Altitude | 16000 |
| Route | SOVIL2B SOVIL DCT SITNI DCT BAGSI DCT MATIG MATIG2R |
| Aircraft | A20N/M-SDE2E3FGHIRWXY/LB1 |
Departure
| Time | 2026-05-04 10:19 |
|---|---|
| Airport | Vienna International Airport (LOWW) |
Arrival
| Time | 2026-05-04 10:52 |
|---|---|
| Airport | Salzburg Airport (LOWS) |
| Time | Latitude | Longitude | Altitude | Speed | Heading |
|---|---|---|---|---|---|
| 2026-05-04 10:00 | 48.11810 | 16.56504 | 608 ft | 0 kts | 26° |
| 2026-05-04 10:08 | 48.11794 | 16.56492 | 615 ft | 3 kts | 26° |
| 2026-05-04 10:08 | 48.11775 | 16.56478 | 621 ft | 3 kts | 26° |
| 2026-05-04 10:08 | 48.11757 | 16.56465 | 614 ft | 3 kts | 26° |
| 2026-05-04 10:09 | 48.11739 | 16.56451 | 609 ft | 3 kts | 54° |
| 2026-05-04 10:09 | 48.11732 | 16.56430 | 625 ft | 2 kts | 67° |
| 2026-05-04 10:09 | 48.11731 | 16.56433 | 625 ft | 2 kts | 84° |
| 2026-05-04 10:09 | 48.11729 | 16.56449 | 622 ft | 0 kts | 104° |
| 2026-05-04 10:10 | 48.11729 | 16.56450 | 622 ft | 0 kts | 104° |
| 2026-05-04 10:10 | 48.11715 | 16.56501 | 610 ft | 9 kts | 115° |
| 2026-05-04 10:10 | 48.11681 | 16.56602 | 617 ft | 12 kts | 116° |
| 2026-05-04 10:10 | 48.11642 | 16.56724 | 615 ft | 14 kts | 116° |
| 2026-05-04 10:11 | 48.11599 | 16.56856 | 620 ft | 15 kts | 116° |
| 2026-05-04 10:11 | 48.11554 | 16.56999 | 618 ft | 16 kts | 114° |
| 2026-05-04 10:11 | 48.11505 | 16.57146 | 613 ft | 15 kts | 116° |
| 2026-05-04 10:11 | 48.11461 | 16.57279 | 614 ft | 13 kts | 117° |
| 2026-05-04 10:12 | 48.11437 | 16.57404 | 614 ft | 12 kts | 73° |
| 2026-05-04 10:12 | 48.11510 | 16.57483 | 616 ft | 15 kts | 29° |
| 2026-05-04 10:12 | 48.11613 | 16.57547 | 620 ft | 17 kts | 8° |
| 2026-05-04 10:12 | 48.11734 | 16.57598 | 609 ft | 19 kts | 21° |
| 2026-05-04 10:13 | 48.11848 | 16.57638 | 620 ft | 10 kts | 48° |
| 2026-05-04 10:13 | 48.11853 | 16.57652 | 619 ft | 0 kts | 65° |
| 2026-05-04 10:13 | 48.11854 | 16.57655 | 609 ft | 0 kts | 65° |
| 2026-05-04 10:16 | 48.11830 | 16.57852 | 620 ft | 14 kts | 123° |
| 2026-05-04 10:16 | 48.11786 | 16.57899 | 613 ft | 0 kts | 164° |
| 2026-05-04 10:17 | 48.11582 | 16.57985 | 612 ft | 73 kts | 165° |
| 2026-05-04 10:17 | 48.10838 | 16.58301 | 614 ft | 145 kts | 163° |
| 2026-05-04 10:19 | 48.03041 | 16.57009 | 5674 ft | 221 kts | 237° |
| 2026-05-04 10:19 | 48.02200 | 16.54982 | 6297 ft | 236 kts | 236° |
| 2026-05-04 10:19 | 48.01307 | 16.52840 | 6941 ft | 247 kts | 236° |
| 2026-05-04 10:19 | 48.00416 | 16.50704 | 8008 ft | 240 kts | 235° |
| 2026-05-04 10:20 | 47.99516 | 16.48608 | 8880 ft | 241 kts | 235° |
| 2026-05-04 10:20 | 47.98609 | 16.46485 | 9718 ft | 244 kts | 236° |
| 2026-05-04 10:20 | 47.97965 | 16.44105 | 10524 ft | 253 kts | 255° |
| 2026-05-04 10:20 | 47.97862 | 16.41446 | 11323 ft | 262 kts | 271° |
| 2026-05-04 10:21 | 47.98009 | 16.38753 | 12145 ft | 266 kts | 271° |
| 2026-05-04 10:21 | 47.98147 | 16.35983 | 12987 ft | 269 kts | 270° |
| 2026-05-04 10:21 | 47.98267 | 16.33183 | 13851 ft | 272 kts | 271° |
| 2026-05-04 10:21 | 47.98380 | 16.30361 | 14647 ft | 273 kts | 270° |
| 2026-05-04 10:22 | 47.98597 | 16.24603 | 15861 ft | 292 kts | 270° |
| 2026-05-04 10:22 | 47.98712 | 16.21451 | 16014 ft | 317 kts | 270° |
| 2026-05-04 10:22 | 47.98839 | 16.18024 | 16041 ft | 345 kts | 271° |
| 2026-05-04 10:23 | 47.98930 | 16.15610 | 16039 ft | 357 kts | 271° |
| 2026-05-04 10:23 | 47.99095 | 16.11887 | 16035 ft | 360 kts | 274° |
| 2026-05-04 10:25 | 48.01101 | 15.85952 | 16030 ft | 358 kts | 274° |
| 2026-05-04 10:25 | 48.01379 | 15.82251 | 16031 ft | 359 kts | 274° |
| 2026-05-04 10:25 | 48.01747 | 15.77349 | 16030 ft | 359 kts | 274° |
| 2026-05-04 10:25 | 48.02020 | 15.73645 | 16031 ft | 359 kts | 274° |
| 2026-05-04 10:26 | 48.02294 | 15.69937 | 16030 ft | 359 kts | 274° |
| 2026-05-04 10:26 | 48.02479 | 15.67434 | 16029 ft | 359 kts | 274° |
| 2026-05-04 10:26 | 48.02748 | 15.63780 | 16032 ft | 359 kts | 274° |
| 2026-05-04 10:26 | 48.03021 | 15.60075 | 16034 ft | 359 kts | 274° |
| 2026-05-04 10:27 | 48.03292 | 15.56371 | 16024 ft | 358 kts | 274° |
| 2026-05-04 10:27 | 48.03560 | 15.52667 | 16029 ft | 359 kts | 274° |
| 2026-05-04 10:27 | 48.03829 | 15.48954 | 16023 ft | 359 kts | 273° |
| 2026-05-04 10:27 | 48.04182 | 15.44057 | 16029 ft | 356 kts | 273° |
| 2026-05-04 10:28 | 48.04359 | 15.41572 | 16033 ft | 356 kts | 273° |
| 2026-05-04 10:28 | 48.04613 | 15.37881 | 16031 ft | 357 kts | 271° |
| 2026-05-04 10:28 | 48.04693 | 15.34225 | 16031 ft | 357 kts | 268° |
| 2026-05-04 10:28 | 48.04749 | 15.30514 | 16029 ft | 357 kts | 269° |
| 2026-05-04 10:29 | 48.04798 | 15.27579 | 16030 ft | 357 kts | 269° |
| 2026-05-04 10:29 | 48.04839 | 15.25169 | 16029 ft | 357 kts | 269° |
| 2026-05-04 10:29 | 48.04899 | 15.21466 | 16032 ft | 357 kts | 269° |
| 2026-05-04 10:29 | 48.04958 | 15.17750 | 16029 ft | 357 kts | 269° |
| 2026-05-04 10:30 | 48.05014 | 15.14047 | 16027 ft | 357 kts | 269° |
| 2026-05-04 10:30 | 48.05069 | 15.10340 | 16028 ft | 357 kts | 269° |
| 2026-05-04 10:30 | 48.05123 | 15.06638 | 16031 ft | 356 kts | 268° |
| 2026-05-04 10:30 | 48.05174 | 15.02987 | 16034 ft | 356 kts | 268° |
| 2026-05-04 10:31 | 48.05224 | 14.99283 | 16022 ft | 356 kts | 268° |
| 2026-05-04 10:31 | 48.05272 | 14.95580 | 16024 ft | 356 kts | 268° |
| 2026-05-04 10:32 | 48.05515 | 14.73376 | 16023 ft | 356 kts | 268° |
| 2026-05-04 10:33 | 48.05543 | 14.69674 | 16025 ft | 356 kts | 268° |
| 2026-05-04 10:33 | 48.05569 | 14.66022 | 16023 ft | 356 kts | 268° |
| 2026-05-04 10:33 | 48.05594 | 14.62322 | 16022 ft | 356 kts | 268° |
| 2026-05-04 10:33 | 48.05616 | 14.58618 | 16026 ft | 356 kts | 268° |
| 2026-05-04 10:34 | 48.05641 | 14.54915 | 16024 ft | 356 kts | 268° |
| 2026-05-04 10:34 | 48.05666 | 14.51213 | 16022 ft | 357 kts | 268° |
| 2026-05-04 10:34 | 48.05689 | 14.47505 | 16025 ft | 357 kts | 268° |
| 2026-05-04 10:34 | 48.05711 | 14.43804 | 16023 ft | 356 kts | 268° |
| 2026-05-04 10:35 | 48.05731 | 14.40104 | 15964 ft | 355 kts | 268° |
| 2026-05-04 10:35 | 48.05749 | 14.36414 | 15577 ft | 356 kts | 268° |
| 2026-05-04 10:35 | 48.05766 | 14.32691 | 14880 ft | 361 kts | 268° |
| 2026-05-04 10:35 | 48.05781 | 14.28927 | 14258 ft | 361 kts | 268° |
| 2026-05-04 10:36 | 48.05797 | 14.25215 | 13932 ft | 352 kts | 268° |
| 2026-05-04 10:36 | 48.05812 | 14.21659 | 13685 ft | 342 kts | 268° |
| 2026-05-04 10:36 | 48.05825 | 14.18120 | 13419 ft | 342 kts | 268° |
| 2026-05-04 10:36 | 48.05835 | 14.14556 | 13169 ft | 343 kts | 268° |
| 2026-05-04 10:37 | 48.05845 | 14.11004 | 12909 ft | 341 kts | 268° |
| 2026-05-04 10:37 | 48.05855 | 14.07468 | 12652 ft | 340 kts | 268° |
| 2026-05-04 10:37 | 48.05862 | 14.03942 | 12398 ft | 339 kts | 268° |
| 2026-05-04 10:37 | 48.05867 | 14.00424 | 12144 ft | 338 kts | 268° |
| 2026-05-04 10:39 | 48.05886 | 13.79493 | 10663 ft | 335 kts | 268° |
| 2026-05-04 10:39 | 48.05887 | 13.76027 | 10471 ft | 331 kts | 268° |
| 2026-05-04 10:39 | 48.05886 | 13.72653 | 10371 ft | 319 kts | 268° |
| 2026-05-04 10:40 | 48.05885 | 13.69405 | 10257 ft | 306 kts | 268° |
| 2026-05-04 10:40 | 48.05883 | 13.66332 | 10126 ft | 294 kts | 268° |
| 2026-05-04 10:40 | 48.05880 | 13.63302 | 9852 ft | 288 kts | 268° |
| 2026-05-04 10:40 | 48.05877 | 13.60351 | 9695 ft | 284 kts | 268° |
| 2026-05-04 10:41 | 48.05870 | 13.57365 | 9345 ft | 289 kts | 268° |
| 2026-05-04 10:41 | 48.05851 | 13.54372 | 8987 ft | 287 kts | 265° |
| 2026-05-04 10:41 | 48.05636 | 13.51430 | 8625 ft | 283 kts | 261° |
| 2026-05-04 10:41 | 48.05385 | 13.48522 | 8275 ft | 284 kts | 261° |
| 2026-05-04 10:42 | 48.05139 | 13.45591 | 7933 ft | 284 kts | 261° |
| 2026-05-04 10:42 | 48.04893 | 13.42662 | 7581 ft | 283 kts | 261° |
| 2026-05-04 10:42 | 48.04652 | 13.39795 | 7240 ft | 281 kts | 261° |
| 2026-05-04 10:42 | 48.04409 | 13.36890 | 6900 ft | 283 kts | 261° |
| 2026-05-04 10:43 | 48.04163 | 13.33973 | 6565 ft | 282 kts | 261° |
| 2026-05-04 10:44 | 48.02432 | 13.13861 | 5132 ft | 278 kts | 258° |
| 2026-05-04 10:45 | 48.01876 | 13.11117 | 5007 ft | 275 kts | 243° |
| 2026-05-04 10:45 | 48.00940 | 13.08657 | 5001 ft | 273 kts | 236° |
| 2026-05-04 10:45 | 47.99925 | 13.06225 | 4993 ft | 276 kts | 236° |
| 2026-05-04 10:45 | 47.98866 | 13.03860 | 4984 ft | 271 kts | 224° |
| 2026-05-04 10:46 | 47.97329 | 13.02319 | 4948 ft | 267 kts | 197° |
| 2026-05-04 10:46 | 47.95531 | 13.02001 | 4714 ft | 258 kts | 170° |
| 2026-05-04 10:46 | 47.93782 | 13.02351 | 4474 ft | 254 kts | 181° |
| 2026-05-04 10:46 | 47.92062 | 13.02098 | 4220 ft | 250 kts | 184° |
| 2026-05-04 10:47 | 47.90354 | 13.01828 | 4040 ft | 242 kts | 184° |
| 2026-05-04 10:47 | 47.88714 | 13.01580 | 3990 ft | 232 kts | 184° |
| 2026-05-04 10:47 | 47.87153 | 13.01329 | 3978 ft | 219 kts | 184° |
| 2026-05-04 10:47 | 47.85681 | 13.01086 | 4000 ft | 206 kts | 184° |
| 2026-05-04 10:49 | 47.78087 | 13.06590 | 3042 ft | 180 kts | 127° |
| 2026-05-04 10:49 | 47.77051 | 13.07597 | 2769 ft | 183 kts | 166° |
| 2026-05-04 10:50 | 47.75815 | 13.07365 | 2488 ft | 182 kts | 207° |
| 2026-05-04 10:51 | 47.79171 | 13.00491 | 1421 ft | 123 kts | 339° |
| 2026-05-04 10:52 | 47.79820 | 13.00084 | 1419 ft | 80 kts | 337° |
| 2026-05-04 10:52 | 47.80187 | 12.99846 | 1420 ft | 41 kts | 336° |
| 2026-05-04 10:52 | 47.80262 | 12.99647 | 1420 ft | 24 kts | 241° |
| 2026-05-04 10:54 | 47.79657 | 12.99925 | 1420 ft | 2 kts | 155° |
| 2026-05-04 10:56 | 47.79324 | 12.99968 | 1420 ft | 13 kts | 233° |
| 2026-05-04 10:56 | 47.79250 | 12.99970 | 1421 ft | 11 kts | 157° |
| 2026-05-04 10:56 | 47.79192 | 13.00030 | 1422 ft | 10 kts | 115° |
| 2026-05-04 10:57 | 47.79179 | 13.00112 | 1419 ft | 1 kts | 101° |